sensor_id;sensor_type;location;lat;lon;timestamp;P1;durP1;ratioP1;P2;durP2;ratioP2
20480;SDS011;10399;50.754;3.366;2023-07-08T00:01:18;9.15;;;6.03;;
20480;SDS011;10399;50.754;3.366;2023-07-08T00:03:47;10.70;;;6.60;;
20480;SDS011;10399;50.754;3.366;2023-07-08T00:06:20;9.60;;;6.32;;
20480;SDS011;10399;50.754;3.366;2023-07-08T00:08:53;13.20;;;6.63;;
20480;SDS011;10399;50.754;3.366;2023-07-08T00:11:30;9.43;;;5.82;;
20480;SDS011;10399;50.754;3.366;2023-07-08T00:13:58;13.95;;;6.25;;
20480;SDS011;10399;50.754;3.366;2023-07-08T00:16:24;11.45;;;6.65;;
20480;SDS011;10399;50.754;3.366;2023-07-08T00:18:52;10.00;;;6.38;;
20480;SDS011;10399;50.754;3.366;2023-07-08T00:21:19;12.88;;;6.07;;
20480;SDS011;10399;50.754;3.366;2023-07-08T00:23:50;10.75;;;6.57;;
20480;SDS011;10399;50.754;3.366;2023-07-08T00:26:28;13.82;;;6.50;;
20480;SDS011;10399;50.754;3.366;2023-07-08T00:28:56;9.45;;;6.28;;
20480;SDS011;10399;50.754;3.366;2023-07-08T00:31:24;24.02;;;5.65;;
20480;SDS011;10399;50.754;3.366;2023-07-08T00:33:53;14.43;;;6.32;;
20480;SDS011;10399;50.754;3.366;2023-07-08T00:36:24;12.02;;;6.22;;
20480;SDS011;10399;50.754;3.366;2023-07-08T00:38:53;9.35;;;5.90;;
20480;SDS011;10399;50.754;3.366;2023-07-08T00:43:56;18.33;;;7.03;;
20480;SDS011;10399;50.754;3.366;2023-07-08T00:51:43;10.35;;;6.18;;
20480;SDS011;10399;50.754;3.366;2023-07-08T00:54:11;13.80;;;6.25;;
20480;SDS011;10399;50.754;3.366;2023-07-08T00:56:40;12.85;;;6.68;;
20480;SDS011;10399;50.754;3.366;2023-07-08T00:59:15;10.65;;;6.45;;
20480;SDS011;10399;50.754;3.366;2023-07-08T01:02:07;12.40;;;6.78;;
20480;SDS011;10399;50.754;3.366;2023-07-08T01:04:39;11.95;;;6.55;;
20480;SDS011;10399;50.754;3.366;2023-07-08T01:07:24;14.35;;;7.43;;
20480;SDS011;10399;50.754;3.366;2023-07-08T01:09:55;16.33;;;7.55;;
20480;SDS011;10399;50.754;3.366;2023-07-08T01:12:30;14.70;;;7.32;;
20480;SDS011;10399;50.754;3.366;2023-07-08T01:15:02;11.77;;;7.20;;
20480;SDS011;10399;50.754;3.366;2023-07-08T01:17:30;14.65;;;7.90;;
20480;SDS011;10399;50.754;3.366;2023-07-08T01:19:59;13.82;;;7.50;;
20480;SDS011;10399;50.754;3.366;2023-07-08T01:22:35;11.18;;;6.80;;
20480;SDS011;10399;50.754;3.366;2023-07-08T01:25:03;12.55;;;7.10;;
20480;SDS011;10399;50.754;3.366;2023-07-08T01:27:31;15.68;;;7.15;;
20480;SDS011;10399;50.754;3.366;2023-07-08T01:30:02;14.38;;;7.10;;
20480;SDS011;10399;50.754;3.366;2023-07-08T01:32:31;17.02;;;7.60;;
20480;SDS011;10399;50.754;3.366;2023-07-08T01:35:02;15.13;;;7.13;;
20480;SDS011;10399;50.754;3.366;2023-07-08T01:37:35;13.63;;;7.85;;
20480;SDS011;10399;50.754;3.366;2023-07-08T01:42:52;13.52;;;7.55;;
20480;SDS011;10399;50.754;3.366;2023-07-08T01:45:21;13.75;;;8.35;;
20480;SDS011;10399;50.754;3.366;2023-07-08T01:47:53;13.25;;;8.38;;
20480;SDS011;10399;50.754;3.366;2023-07-08T01:50:25;16.13;;;7.57;;
20480;SDS011;10399;50.754;3.366;2023-07-08T01:52:54;14.43;;;7.85;;
20480;SDS011;10399;50.754;3.366;2023-07-08T01:55:24;15.32;;;7.45;;
20480;SDS011;10399;50.754;3.366;2023-07-08T01:57:54;16.33;;;7.43;;
20480;SDS011;10399;50.754;3.366;2023-07-08T02:00:22;15.40;;;7.43;;
20480;SDS011;10399;50.754;3.366;2023-07-08T02:02:50;12.25;;;7.63;;
20480;SDS011;10399;50.754;3.366;2023-07-08T02:05:18;13.43;;;7.78;;
20480;SDS011;10399;50.754;3.366;2023-07-08T02:07:45;19.73;;;8.00;;
20480;SDS011;10399;50.754;3.366;2023-07-08T02:10:12;12.05;;;6.95;;
20480;SDS011;10399;50.754;3.366;2023-07-08T02:12:39;11.07;;;6.93;;
20480;SDS011;10399;50.754;3.366;2023-07-08T02:15:07;14.00;;;7.78;;
20480;SDS011;10399;50.754;3.366;2023-07-08T02:17:36;12.27;;;7.03;;
20480;SDS011;10399;50.754;3.366;2023-07-08T02:20:03;14.40;;;7.07;;
20480;SDS011;10399;50.754;3.366;2023-07-08T02:22:30;13.05;;;7.30;;
20480;SDS011;10399;50.754;3.366;2023-07-08T02:24:57;14.77;;;7.78;;
20480;SDS011;10399;50.754;3.366;2023-07-08T02:27:24;18.23;;;7.63;;
20480;SDS011;10399;50.754;3.366;2023-07-08T02:29:51;12.73;;;8.45;;
20480;SDS011;10399;50.754;3.366;2023-07-08T02:32:18;13.73;;;8.20;;
20480;SDS011;10399;50.754;3.366;2023-07-08T02:34:45;14.95;;;8.50;;
20480;SDS011;10399;50.754;3.366;2023-07-08T02:37:13;15.77;;;9.05;;
20480;SDS011;10399;50.754;3.366;2023-07-08T02:39:40;17.90;;;9.18;;
20480;SDS011;10399;50.754;3.366;2023-07-08T02:42:06;20.52;;;9.18;;
20480;SDS011;10399;50.754;3.366;2023-07-08T02:44:33;15.88;;;8.80;;
20480;SDS011;10399;50.754;3.366;2023-07-08T02:47:00;20.55;;;9.55;;
20480;SDS011;10399;50.754;3.366;2023-07-08T02:49:28;18.27;;;8.15;;
20480;SDS011;10399;50.754;3.366;2023-07-08T02:51:56;14.70;;;8.98;;
20480;SDS011;10399;50.754;3.366;2023-07-08T02:54:23;16.55;;;9.02;;
20480;SDS011;10399;50.754;3.366;2023-07-08T02:56:50;17.15;;;9.35;;
20480;SDS011;10399;50.754;3.366;2023-07-08T02:59:17;20.13;;;9.80;;
20480;SDS011;10399;50.754;3.366;2023-07-08T03:01:45;14.75;;;8.70;;
20480;SDS011;10399;50.754;3.366;2023-07-08T03:04:13;16.35;;;9.23;;
20480;SDS011;10399;50.754;3.366;2023-07-08T03:06:44;17.33;;;9.13;;
20480;SDS011;10399;50.754;3.366;2023-07-08T03:09:12;14.25;;;8.32;;
20480;SDS011;10399;50.754;3.366;2023-07-08T03:11:40;13.57;;;8.25;;
20480;SDS011;10399;50.754;3.366;2023-07-08T03:14:07;14.10;;;8.18;;
20480;SDS011;10399;50.754;3.366;2023-07-08T03:16:34;17.02;;;7.95;;
20480;SDS011;10399;50.754;3.366;2023-07-08T03:19:02;13.18;;;7.78;;
20480;SDS011;10399;50.754;3.366;2023-07-08T03:21:31;13.18;;;7.38;;
20480;SDS011;10399;50.754;3.366;2023-07-08T03:23:58;16.00;;;7.72;;
20480;SDS011;10399;50.754;3.366;2023-07-08T03:26:25;14.82;;;8.30;;
20480;SDS011;10399;50.754;3.366;2023-07-08T03:28:57;13.20;;;7.57;;
20480;SDS011;10399;50.754;3.366;2023-07-08T03:31:24;13.10;;;8.48;;
20480;SDS011;10399;50.754;3.366;2023-07-08T03:33:51;16.17;;;9.07;;
20480;SDS011;10399;50.754;3.366;2023-07-08T03:36:19;14.57;;;8.32;;
20480;SDS011;10399;50.754;3.366;2023-07-08T03:38:53;14.63;;;8.35;;
20480;SDS011;10399;50.754;3.366;2023-07-08T03:41:24;13.85;;;8.27;;
20480;SDS011;10399;50.754;3.366;2023-07-08T03:43:52;14.07;;;8.70;;
20480;SDS011;10399;50.754;3.366;2023-07-08T03:46:19;14.05;;;8.20;;
20480;SDS011;10399;50.754;3.366;2023-07-08T03:48:48;16.08;;;8.13;;
20480;SDS011;10399;50.754;3.366;2023-07-08T03:51:29;13.75;;;8.50;;
20480;SDS011;10399;50.754;3.366;2023-07-08T03:53:58;15.05;;;8.23;;
20480;SDS011;10399;50.754;3.366;2023-07-08T03:56:25;14.25;;;8.73;;
20480;SDS011;10399;50.754;3.366;2023-07-08T03:58:53;13.48;;;7.75;;
20480;SDS011;10399;50.754;3.366;2023-07-08T04:01:21;14.23;;;7.45;;
20480;SDS011;10399;50.754;3.366;2023-07-08T04:03:54;15.20;;;8.20;;
20480;SDS011;10399;50.754;3.366;2023-07-08T04:06:23;16.40;;;8.38;;
20480;SDS011;10399;50.754;3.366;2023-07-08T04:08:51;17.10;;;8.18;;
20480;SDS011;10399;50.754;3.366;2023-07-08T04:11:20;14.40;;;7.95;;
20480;SDS011;10399;50.754;3.366;2023-07-08T04:13:48;15.48;;;8.23;;
20480;SDS011;10399;50.754;3.366;2023-07-08T04:16:23;12.65;;;8.13;;
20480;SDS011;10399;50.754;3.366;2023-07-08T04:18:55;11.75;;;6.95;;
20480;SDS011;10399;50.754;3.366;2023-07-08T04:21:23;16.17;;;7.55;;
20480;SDS011;10399;50.754;3.366;2023-07-08T04:23:53;12.75;;;7.97;;
20480;SDS011;10399;50.754;3.366;2023-07-08T04:26:21;14.65;;;8.02;;
20480;SDS011;10399;50.754;3.366;2023-07-08T04:28:49;14.27;;;7.90;;
20480;SDS011;10399;50.754;3.366;2023-07-08T04:31:16;15.30;;;7.55;;
20480;SDS011;10399;50.754;3.366;2023-07-08T04:33:44;14.75;;;7.25;;
20480;SDS011;10399;50.754;3.366;2023-07-08T04:36:11;12.43;;;7.32;;
20480;SDS011;10399;50.754;3.366;2023-07-08T04:38:40;14.30;;;7.43;;
20480;SDS011;10399;50.754;3.366;2023-07-08T04:41:08;12.77;;;7.28;;
20480;SDS011;10399;50.754;3.366;2023-07-08T04:43:35;14.13;;;7.60;;
20480;SDS011;10399;50.754;3.366;2023-07-08T04:46:02;14.27;;;7.82;;
20480;SDS011;10399;50.754;3.366;2023-07-08T04:48:35;13.93;;;7.95;;
20480;SDS011;10399;50.754;3.366;2023-07-08T04:51:02;14.48;;;7.65;;
20480;SDS011;10399;50.754;3.366;2023-07-08T04:53:29;16.48;;;6.72;;
20480;SDS011;10399;50.754;3.366;2023-07-08T04:55:57;10.73;;;6.68;;
20480;SDS011;10399;50.754;3.366;2023-07-08T04:58:25;13.48;;;7.55;;
20480;SDS011;10399;50.754;3.366;2023-07-08T05:00:52;18.80;;;8.57;;
20480;SDS011;10399;50.754;3.366;2023-07-08T05:03:19;13.07;;;7.78;;
20480;SDS011;10399;50.754;3.366;2023-07-08T05:05:46;17.48;;;8.27;;
20480;SDS011;10399;50.754;3.366;2023-07-08T05:08:13;11.75;;;6.85;;
20480;SDS011;10399;50.754;3.366;2023-07-08T05:10:40;13.27;;;7.75;;
20480;SDS011;10399;50.754;3.366;2023-07-08T05:13:08;16.10;;;7.13;;
20480;SDS011;10399;50.754;3.366;2023-07-08T05:15:35;13.82;;;7.72;;
20480;SDS011;10399;50.754;3.366;2023-07-08T05:18:02;13.20;;;7.50;;
20480;SDS011;10399;50.754;3.366;2023-07-08T05:20:29;12.40;;;7.00;;
20480;SDS011;10399;50.754;3.366;2023-07-08T05:22:59;11.95;;;7.57;;
20480;SDS011;10399;50.754;3.366;2023-07-08T05:25:26;15.27;;;7.25;;
20480;SDS011;10399;50.754;3.366;2023-07-08T05:27:58;12.68;;;7.47;;
20480;SDS011;10399;50.754;3.366;2023-07-08T05:30:25;10.88;;;6.85;;
20480;SDS011;10399;50.754;3.366;2023-07-08T05:32:52;12.02;;;6.75;;
20480;SDS011;10399;50.754;3.366;2023-07-08T05:35:20;12.18;;;6.70;;
20480;SDS011;10399;50.754;3.366;2023-07-08T05:37:47;11.52;;;6.25;;
20480;SDS011;10399;50.754;3.366;2023-07-08T05:40:14;14.75;;;6.85;;
20480;SDS011;10399;50.754;3.366;2023-07-08T05:42:41;14.63;;;6.68;;
20480;SDS011;10399;50.754;3.366;2023-07-08T05:45:09;16.45;;;6.93;;
20480;SDS011;10399;50.754;3.366;2023-07-08T05:47:38;15.30;;;7.47;;
20480;SDS011;10399;50.754;3.366;2023-07-08T05:50:06;14.50;;;7.28;;
20480;SDS011;10399;50.754;3.366;2023-07-08T05:52:33;11.48;;;6.60;;
20480;SDS011;10399;50.754;3.366;2023-07-08T05:55:01;12.30;;;6.50;;
20480;SDS011;10399;50.754;3.366;2023-07-08T05:57:28;11.63;;;6.25;;
20480;SDS011;10399;50.754;3.366;2023-07-08T05:59:55;10.65;;;6.40;;
20480;SDS011;10399;50.754;3.366;2023-07-08T06:02:22;12.32;;;7.03;;
20480;SDS011;10399;50.754;3.366;2023-07-08T06:04:52;12.07;;;6.75;;
20480;SDS011;10399;50.754;3.366;2023-07-08T06:07:19;16.20;;;6.70;;
20480;SDS011;10399;50.754;3.366;2023-07-08T06:09:46;14.98;;;6.68;;
20480;SDS011;10399;50.754;3.366;2023-07-08T06:12:14;11.82;;;6.05;;
20480;SDS011;10399;50.754;3.366;2023-07-08T06:14:41;15.32;;;6.25;;
20480;SDS011;10399;50.754;3.366;2023-07-08T06:17:08;12.15;;;6.00;;
20480;SDS011;10399;50.754;3.366;2023-07-08T06:19:35;8.27;;;5.30;;
20480;SDS011;10399;50.754;3.366;2023-07-08T06:22:02;11.48;;;6.05;;
20480;SDS011;10399;50.754;3.366;2023-07-08T06:24:49;12.45;;;6.80;;
20480;SDS011;10399;50.754;3.366;2023-07-08T06:27:17;12.57;;;6.57;;
20480;SDS011;10399;50.754;3.366;2023-07-08T06:29:44;15.88;;;6.72;;
20480;SDS011;10399;50.754;3.366;2023-07-08T06:32:11;11.65;;;5.95;;
20480;SDS011;10399;50.754;3.366;2023-07-08T06:34:41;14.13;;;5.85;;
20480;SDS011;10399;50.754;3.366;2023-07-08T06:37:08;10.52;;;6.38;;
20480;SDS011;10399;50.754;3.366;2023-07-08T06:39:35;10.60;;;6.05;;
20480;SDS011;10399;50.754;3.366;2023-07-08T06:42:05;16.95;;;6.80;;
20480;SDS011;10399;50.754;3.366;2023-07-08T06:44:32;12.63;;;5.63;;
20480;SDS011;10399;50.754;3.366;2023-07-08T06:47:00;10.98;;;5.95;;
20480;SDS011;10399;50.754;3.366;2023-07-08T06:49:27;11.05;;;5.05;;
20480;SDS011;10399;50.754;3.366;2023-07-08T06:51:54;10.88;;;5.32;;
20480;SDS011;10399;50.754;3.366;2023-07-08T06:54:23;11.80;;;5.63;;
20480;SDS011;10399;50.754;3.366;2023-07-08T06:56:51;10.20;;;5.78;;
20480;SDS011;10399;50.754;3.366;2023-07-08T06:59:18;11.85;;;5.20;;
20480;SDS011;10399;50.754;3.366;2023-07-08T07:01:45;10.07;;;5.15;;
20480;SDS011;10399;50.754;3.366;2023-07-08T07:04:12;11.57;;;5.55;;
20480;SDS011;10399;50.754;3.366;2023-07-08T07:06:40;13.75;;;6.20;;
20480;SDS011;10399;50.754;3.366;2023-07-08T07:09:08;11.57;;;5.70;;
20480;SDS011;10399;50.754;3.366;2023-07-08T07:11:35;10.90;;;5.13;;
20480;SDS011;10399;50.754;3.366;2023-07-08T07:14:02;13.90;;;7.70;;
20480;SDS011;10399;50.754;3.366;2023-07-08T07:16:50;13.40;;;6.28;;
20480;SDS011;10399;50.754;3.366;2023-07-08T07:19:23;8.40;;;5.10;;
20480;SDS011;10399;50.754;3.366;2023-07-08T07:21:50;23.63;;;10.00;;
20480;SDS011;10399;50.754;3.366;2023-07-08T07:24:18;13.20;;;6.75;;
20480;SDS011;10399;50.754;3.366;2023-07-08T07:26:46;14.40;;;6.53;;
20480;SDS011;10399;50.754;3.366;2023-07-08T07:29:15;13.82;;;6.07;;
20480;SDS011;10399;50.754;3.366;2023-07-08T07:31:43;18.23;;;8.98;;
20480;SDS011;10399;50.754;3.366;2023-07-08T07:34:13;14.60;;;6.78;;
20480;SDS011;10399;50.754;3.366;2023-07-08T07:36:40;10.27;;;5.65;;
20480;SDS011;10399;50.754;3.366;2023-07-08T07:39:08;14.00;;;6.15;;
20480;SDS011;10399;50.754;3.366;2023-07-08T07:41:35;16.20;;;6.93;;
20480;SDS011;10399;50.754;3.366;2023-07-08T07:44:02;9.02;;;5.00;;
20480;SDS011;10399;50.754;3.366;2023-07-08T07:46:30;14.02;;;6.85;;
20480;SDS011;10399;50.754;3.366;2023-07-08T07:48:57;9.30;;;5.30;;
20480;SDS011;10399;50.754;3.366;2023-07-08T07:51:24;9.68;;;5.38;;
20480;SDS011;10399;50.754;3.366;2023-07-08T07:53:52;17.08;;;8.43;;
20480;SDS011;10399;50.754;3.366;2023-07-08T07:56:19;9.43;;;5.40;;
20480;SDS011;10399;50.754;3.366;2023-07-08T07:58:51;8.93;;;5.43;;
20480;SDS011;10399;50.754;3.366;2023-07-08T08:01:18;12.95;;;5.60;;
20480;SDS011;10399;50.754;3.366;2023-07-08T08:03:48;9.75;;;5.35;;
20480;SDS011;10399;50.754;3.366;2023-07-08T08:06:17;9.02;;;5.38;;
20480;SDS011;10399;50.754;3.366;2023-07-08T08:08:45;13.20;;;5.55;;
20480;SDS011;10399;50.754;3.366;2023-07-08T08:11:12;16.17;;;5.90;;
20480;SDS011;10399;50.754;3.366;2023-07-08T08:13:39;9.90;;;5.55;;
20480;SDS011;10399;50.754;3.366;2023-07-08T08:16:06;14.57;;;5.80;;
20480;SDS011;10399;50.754;3.366;2023-07-08T08:18:33;9.38;;;5.10;;
20480;SDS011;10399;50.754;3.366;2023-07-08T08:21:00;8.50;;;5.55;;
20480;SDS011;10399;50.754;3.366;2023-07-08T08:23:29;9.15;;;5.22;;
20480;SDS011;10399;50.754;3.366;2023-07-08T08:25:56;12.80;;;6.05;;
20480;SDS011;10399;50.754;3.366;2023-07-08T08:28:23;12.40;;;5.85;;
20480;SDS011;10399;50.754;3.366;2023-07-08T08:30:51;11.07;;;5.45;;
20480;SDS011;10399;50.754;3.366;2023-07-08T08:33:19;11.27;;;5.70;;
20480;SDS011;10399;50.754;3.366;2023-07-08T08:35:46;11.90;;;6.18;;
20480;SDS011;10399;50.754;3.366;2023-07-08T08:38:14;12.32;;;5.55;;
20480;SDS011;10399;50.754;3.366;2023-07-08T08:40:41;10.43;;;6.07;;
20480;SDS011;10399;50.754;3.366;2023-07-08T08:43:10;11.07;;;5.53;;
20480;SDS011;10399;50.754;3.366;2023-07-08T08:45:48;8.35;;;5.13;;
20480;SDS011;10399;50.754;3.366;2023-07-08T08:48:23;9.43;;;5.78;;
20480;SDS011;10399;50.754;3.366;2023-07-08T08:50:53;9.93;;;5.78;;
20480;SDS011;10399;50.754;3.366;2023-07-08T08:53:26;8.45;;;5.50;;
20480;SDS011;10399;50.754;3.366;2023-07-08T08:55:55;13.18;;;5.80;;
20480;SDS011;10399;50.754;3.366;2023-07-08T08:59:29;9.65;;;5.10;;
20480;SDS011;10399;50.754;3.366;2023-07-08T09:01:43;12.82;;;5.50;;
20480;SDS011;10399;50.754;3.366;2023-07-08T09:04:15;14.30;;;5.78;;
20480;SDS011;10399;50.754;3.366;2023-07-08T09:06:53;9.95;;;5.47;;
20480;SDS011;10399;50.754;3.366;2023-07-08T09:09:39;12.23;;;5.35;;
20480;SDS011;10399;50.754;3.366;2023-07-08T09:12:26;14.02;;;6.00;;
20480;SDS011;10399;50.754;3.366;2023-07-08T09:14:56;14.05;;;5.45;;
20480;SDS011;10399;50.754;3.366;2023-07-08T09:17:27;12.57;;;5.43;;
20480;SDS011;10399;50.754;3.366;2023-07-08T09:25:49;14.43;;;5.90;;
20480;SDS011;10399;50.754;3.366;2023-07-08T09:28:34;12.43;;;5.55;;
20480;SDS011;10399;50.754;3.366;2023-07-08T09:31:06;11.55;;;5.05;;
20480;SDS011;10399;50.754;3.366;2023-07-08T09:33:39;10.55;;;5.40;;
20480;SDS011;10399;50.754;3.366;2023-07-08T09:36:16;10.77;;;5.50;;
20480;SDS011;10399;50.754;3.366;2023-07-08T09:38:48;10.98;;;5.47;;
20480;SDS011;10399;50.754;3.366;2023-07-08T09:41:28;10.93;;;5.43;;
20480;SDS011;10399;50.754;3.366;2023-07-08T09:44:05;13.82;;;5.70;;
20480;SDS011;10399;50.754;3.366;2023-07-08T09:46:39;10.75;;;5.45;;
20480;SDS011;10399;50.754;3.366;2023-07-08T09:49:18;9.93;;;4.82;;
20480;SDS011;10399;50.754;3.366;2023-07-08T09:51:58;14.20;;;5.82;;
20480;SDS011;10399;50.754;3.366;2023-07-08T09:54:26;11.20;;;5.53;;
20480;SDS011;10399;50.754;3.366;2023-07-08T09:57:02;10.23;;;5.35;;
20480;SDS011;10399;50.754;3.366;2023-07-08T09:59:39;9.75;;;5.28;;
20480;SDS011;10399;50.754;3.366;2023-07-08T10:07:39;13.85;;;5.47;;
20480;SDS011;10399;50.754;3.366;2023-07-08T10:10:07;7.82;;;5.40;;
20480;SDS011;10399;50.754;3.366;2023-07-08T10:12:41;9.25;;;5.30;;
20480;SDS011;10399;50.754;3.366;2023-07-08T10:15:24;19.60;;;5.65;;
20480;SDS011;10399;50.754;3.366;2023-07-08T10:17:58;9.88;;;5.40;;
20480;SDS011;10399;50.754;3.366;2023-07-08T10:20:27;9.40;;;5.72;;
20480;SDS011;10399;50.754;3.366;2023-07-08T10:24:11;11.65;;;6.03;;
20480;SDS011;10399;50.754;3.366;2023-07-08T10:40:34;9.48;;;5.32;;
20480;SDS011;10399;50.754;3.366;2023-07-08T10:51:45;8.82;;;5.63;;
20480;SDS011;10399;50.754;3.366;2023-07-08T10:54:27;10.68;;;5.93;;
20480;SDS011;10399;50.754;3.366;2023-07-08T11:10:52;11.05;;;5.57;;
20480;SDS011;10399;50.754;3.366;2023-07-08T11:13:45;11.30;;;5.75;;
20480;SDS011;10399;50.754;3.366;2023-07-08T11:19:10;8.20;;;4.93;;
20480;SDS011;10399;50.754;3.366;2023-07-08T11:21:48;11.57;;;5.18;;
20480;SDS011;10399;50.754;3.366;2023-07-08T11:27:08;10.57;;;5.75;;
20480;SDS011;10399;50.754;3.366;2023-07-08T11:29:48;10.80;;;4.97;;
20480;SDS011;10399;50.754;3.366;2023-07-08T11:32:19;11.60;;;5.30;;
20480;SDS011;10399;50.754;3.366;2023-07-08T11:34:50;11.52;;;5.60;;
20480;SDS011;10399;50.754;3.366;2023-07-08T11:37:19;8.32;;;5.10;;
20480;SDS011;10399;50.754;3.366;2023-07-08T11:39:58;8.23;;;5.85;;
20480;SDS011;10399;50.754;3.366;2023-07-08T11:43:02;11.05;;;5.47;;
20480;SDS011;10399;50.754;3.366;2023-07-08T11:45:39;12.18;;;6.03;;
20480;SDS011;10399;50.754;3.366;2023-07-08T11:50:43;14.73;;;5.47;;
20480;SDS011;10399;50.754;3.366;2023-07-08T12:03:49;10.15;;;5.55;;
20480;SDS011;10399;50.754;3.366;2023-07-08T12:09:14;10.00;;;5.32;;
20480;SDS011;10399;50.754;3.366;2023-07-08T12:12:04;11.40;;;5.60;;
20480;SDS011;10399;50.754;3.366;2023-07-08T12:14:34;11.35;;;5.75;;
20480;SDS011;10399;50.754;3.366;2023-07-08T12:17:01;11.02;;;5.30;;
20480;SDS011;10399;50.754;3.366;2023-07-08T12:19:28;9.88;;;5.80;;
20480;SDS011;10399;50.754;3.366;2023-07-08T12:22:01;9.18;;;5.50;;
20480;SDS011;10399;50.754;3.366;2023-07-08T12:24:28;9.00;;;5.30;;
20480;SDS011;10399;50.754;3.366;2023-07-08T12:26:55;8.63;;;5.63;;
20480;SDS011;10399;50.754;3.366;2023-07-08T12:29:22;13.27;;;5.80;;
20480;SDS011;10399;50.754;3.366;2023-07-08T12:31:52;13.00;;;5.25;;
20480;SDS011;10399;50.754;3.366;2023-07-08T12:34:19;18.17;;;5.53;;
20480;SDS011;10399;50.754;3.366;2023-07-08T12:36:49;13.10;;;5.50;;
20480;SDS011;10399;50.754;3.366;2023-07-08T12:39:16;13.00;;;5.70;;
20480;SDS011;10399;50.754;3.366;2023-07-08T12:41:45;9.50;;;5.68;;
20480;SDS011;10399;50.754;3.366;2023-07-08T12:44:17;9.57;;;5.65;;
20480;SDS011;10399;50.754;3.366;2023-07-08T12:46:49;10.30;;;5.72;;
20480;SDS011;10399;50.754;3.366;2023-07-08T12:49:19;10.70;;;5.35;;
20480;SDS011;10399;50.754;3.366;2023-07-08T12:51:47;11.90;;;5.47;;
20480;SDS011;10399;50.754;3.366;2023-07-08T12:54:14;10.35;;;6.00;;
20480;SDS011;10399;50.754;3.366;2023-07-08T12:56:42;11.95;;;5.40;;
20480;SDS011;10399;50.754;3.366;2023-07-08T12:59:14;10.23;;;5.82;;
20480;SDS011;10399;50.754;3.366;2023-07-08T13:01:45;12.38;;;5.40;;
20480;SDS011;10399;50.754;3.366;2023-07-08T13:04:13;9.45;;;5.30;;
20480;SDS011;10399;50.754;3.366;2023-07-08T13:06:43;12.38;;;5.38;;
20480;SDS011;10399;50.754;3.366;2023-07-08T13:12:18;10.60;;;5.47;;
20480;SDS011;10399;50.754;3.366;2023-07-08T13:14:51;10.88;;;5.43;;
20480;SDS011;10399;50.754;3.366;2023-07-08T13:17:20;14.23;;;6.05;;
20480;SDS011;10399;50.754;3.366;2023-07-08T13:19:47;10.88;;;5.95;;
20480;SDS011;10399;50.754;3.366;2023-07-08T13:22:16;7.85;;;4.72;;
20480;SDS011;10399;50.754;3.366;2023-07-08T13:24:48;9.68;;;5.43;;
20480;SDS011;10399;50.754;3.366;2023-07-08T13:27:25;9.18;;;6.03;;
20480;SDS011;10399;50.754;3.366;2023-07-08T13:30:17;13.77;;;5.28;;
20480;SDS011;10399;50.754;3.366;2023-07-08T13:32:56;9.82;;;5.03;;
20480;SDS011;10399;50.754;3.366;2023-07-08T13:38:03;10.82;;;5.38;;
20480;SDS011;10399;50.754;3.366;2023-07-08T13:40:31;8.05;;;4.85;;
20480;SDS011;10399;50.754;3.366;2023-07-08T13:42:59;9.45;;;4.95;;
20480;SDS011;10399;50.754;3.366;2023-07-08T13:45:27;11.95;;;5.50;;
20480;SDS011;10399;50.754;3.366;2023-07-08T13:48:43;10.98;;;5.05;;
20480;SDS011;10399;50.754;3.366;2023-07-08T13:50:57;10.07;;;5.15;;
20480;SDS011;10399;50.754;3.366;2023-07-08T13:53:43;10.47;;;5.80;;
20480;SDS011;10399;50.754;3.366;2023-07-08T13:56:15;9.95;;;5.45;;
20480;SDS011;10399;50.754;3.366;2023-07-08T13:59:01;12.15;;;5.20;;
20480;SDS011;10399;50.754;3.366;2023-07-08T14:01:32;6.80;;;4.95;;
20480;SDS011;10399;50.754;3.366;2023-07-08T14:04:04;11.07;;;4.97;;
20480;SDS011;10399;50.754;3.366;2023-07-08T14:06:34;10.65;;;4.88;;
20480;SDS011;10399;50.754;3.366;2023-07-08T14:09:11;7.53;;;4.60;;
20480;SDS011;10399;50.754;3.366;2023-07-08T14:11:41;11.38;;;4.40;;
20480;SDS011;10399;50.754;3.366;2023-07-08T14:14:09;11.23;;;4.35;;
20480;SDS011;10399;50.754;3.366;2023-07-08T14:16:41;7.18;;;4.95;;
20480;SDS011;10399;50.754;3.366;2023-07-08T14:19:19;10.73;;;5.30;;
20480;SDS011;10399;50.754;3.366;2023-07-08T14:21:51;8.48;;;4.78;;
20480;SDS011;10399;50.754;3.366;2023-07-08T14:24:21;12.02;;;4.80;;
20480;SDS011;10399;50.754;3.366;2023-07-08T14:26:49;13.98;;;5.70;;
20480;SDS011;10399;50.754;3.366;2023-07-08T14:29:17;7.60;;;4.55;;
20480;SDS011;10399;50.754;3.366;2023-07-08T14:31:44;10.55;;;4.90;;
20480;SDS011;10399;50.754;3.366;2023-07-08T14:34:17;8.20;;;4.60;;
20480;SDS011;10399;50.754;3.366;2023-07-08T14:36:49;8.15;;;4.78;;
20480;SDS011;10399;50.754;3.366;2023-07-08T14:39:16;7.93;;;4.40;;
20480;SDS011;10399;50.754;3.366;2023-07-08T14:41:45;10.02;;;3.90;;
20480;SDS011;10399;50.754;3.366;2023-07-08T14:46:53;8.57;;;4.78;;
20480;SDS011;10399;50.754;3.366;2023-07-08T14:49:21;8.00;;;4.80;;
20480;SDS011;10399;50.754;3.366;2023-07-08T14:51:49;10.38;;;4.47;;
20480;SDS011;10399;50.754;3.366;2023-07-08T14:54:18;7.80;;;4.60;;
20480;SDS011;10399;50.754;3.366;2023-07-08T14:56:46;6.93;;;4.50;;
20480;SDS011;10399;50.754;3.366;2023-07-08T14:59:16;8.95;;;4.47;;
20480;SDS011;10399;50.754;3.366;2023-07-08T15:01:46;12.98;;;4.70;;
20480;SDS011;10399;50.754;3.366;2023-07-08T15:04:14;12.57;;;4.80;;
20480;SDS011;10399;50.754;3.366;2023-07-08T15:06:43;5.55;;;4.40;;
20480;SDS011;10399;50.754;3.366;2023-07-08T15:09:12;10.00;;;4.47;;
20480;SDS011;10399;50.754;3.366;2023-07-08T15:11:44;12.05;;;4.80;;
20480;SDS011;10399;50.754;3.366;2023-07-08T15:14:21;13.32;;;5.03;;
20480;SDS011;10399;50.754;3.366;2023-07-08T15:16:50;10.25;;;5.30;;
20480;SDS011;10399;50.754;3.366;2023-07-08T15:19:18;12.13;;;6.10;;
20480;SDS011;10399;50.754;3.366;2023-07-08T15:21:50;11.70;;;5.68;;
20480;SDS011;10399;50.754;3.366;2023-07-08T15:24:18;8.52;;;4.75;;
20480;SDS011;10399;50.754;3.366;2023-07-08T15:26:46;10.48;;;5.15;;
20480;SDS011;10399;50.754;3.366;2023-07-08T15:29:16;8.80;;;5.25;;
20480;SDS011;10399;50.754;3.366;2023-07-08T15:31:45;10.23;;;4.88;;
20480;SDS011;10399;50.754;3.366;2023-07-08T15:34:13;9.93;;;4.50;;
20480;SDS011;10399;50.754;3.366;2023-07-08T15:36:43;7.20;;;4.05;;
20480;SDS011;10399;50.754;3.366;2023-07-08T15:39:11;10.82;;;4.35;;
20480;SDS011;10399;50.754;3.366;2023-07-08T15:41:41;10.27;;;3.92;;
20480;SDS011;10399;50.754;3.366;2023-07-08T15:44:10;8.98;;;4.30;;
20480;SDS011;10399;50.754;3.366;2023-07-08T15:46:42;10.10;;;3.97;;
20480;SDS011;10399;50.754;3.366;2023-07-08T15:51:42;9.20;;;4.20;;
20480;SDS011;10399;50.754;3.366;2023-07-08T15:54:14;6.60;;;3.95;;
20480;SDS011;10399;50.754;3.366;2023-07-08T15:56:41;7.60;;;4.53;;
20480;SDS011;10399;50.754;3.366;2023-07-08T15:59:30;10.32;;;5.00;;
20480;SDS011;10399;50.754;3.366;2023-07-08T16:01:59;11.38;;;5.32;;
20480;SDS011;10399;50.754;3.366;2023-07-08T16:04:32;13.02;;;4.00;;
20480;SDS011;10399;50.754;3.366;2023-07-08T16:07:00;7.60;;;4.20;;
20480;SDS011;10399;50.754;3.366;2023-07-08T16:09:27;7.78;;;4.30;;
20480;SDS011;10399;50.754;3.366;2023-07-08T16:11:55;9.75;;;3.85;;
20480;SDS011;10399;50.754;3.366;2023-07-08T16:14:22;5.78;;;4.00;;
20480;SDS011;10399;50.754;3.366;2023-07-08T16:16:52;8.40;;;4.65;;
20480;SDS011;10399;50.754;3.366;2023-07-08T16:19:20;10.20;;;4.00;;
20480;SDS011;10399;50.754;3.366;2023-07-08T16:21:47;10.45;;;4.47;;
20480;SDS011;10399;50.754;3.366;2023-07-08T16:24:14;7.13;;;3.65;;
20480;SDS011;10399;50.754;3.366;2023-07-08T16:26:42;8.65;;;3.70;;
20480;SDS011;10399;50.754;3.366;2023-07-08T16:29:14;5.95;;;3.83;;